15°C Temp
12°C Dewpoint
82% Humidity
Temperature
8 KM/H
5 MPH
4 KTS
300°
West North
West

Wind Speed
Partly Cloudy
Conditions
Pressure 1017.92 (hPa) - 30.06 (in)
Visibility 6.2 (mi) - 10.0 (km)

Current Conditions
LEMG
Location 9(km)
Metar :LEMG 170830Z 30004KT 260V330 9999 FEW050 15/12 Q1018 NOSIG
Sat 17th April 10:30 am

Airport
  Metar Aviation API Data Provided by https://www.checkwx.com/ PHP scripts by weather34.com ©2021